Time;durP1;ratioP1;P1;durP2;ratioP2;P2;SDS_P1;SDS_P2;PMS_P1;PMS_P2;Temp;Humidity;BMP_temperature;BMP_pressure;BME280_temperature;BME280_humidity;BME280_pressure;Samples;Min_cycle;Max_cycle;Signal;HPM_P1;HPM_P2
2022/04/29 00:00:18;;;;;;;9.00;2.10;;;;;;;13.53;63.01;102799.69;5071033;28;20049;-84
2022/04/29 00:02:46;;;;;;;6.20;2.05;;;;;;;13.72;63.15;102793.19;5073177;28;20056;-84
2022/04/29 00:05:14;;;;;;;6.85;1.60;;;;;;;13.72;63.14;102787.94;5072974;28;20048;-83
2022/04/29 00:07:41;;;;;;;8.15;1.75;;;;;;;13.54;63.16;102769.84;5072021;28;20044;-84
2022/04/29 00:10:13;;;;;;;3.78;1.60;;;;;;;13.60;62.45;102769.75;5072168;28;20055;-84
2022/04/29 00:12:46;;;;;;;6.85;1.92;;;;;;;13.53;63.29;102779.53;5073062;28;20474;-84
2022/04/29 00:15:14;;;;;;;8.75;2.28;;;;;;;13.80;63.08;102806.25;5073411;28;20482;-84
2022/04/29 00:17:42;;;;;;;6.13;1.90;;;;;;;13.99;62.22;102798.88;5072233;28;20425;-84
2022/04/29 00:20:10;;;;;;;8.88;2.00;;;;;;;13.57;63.70;102773.31;5071857;28;20439;-84
2022/04/29 00:22:37;;;;;;;7.85;2.17;;;;;;;13.64;63.83;102774.94;5071685;28;20048;-83
2022/04/29 00:25:06;;;;;;;6.05;1.90;;;;;;;13.88;63.18;102785.03;5071520;28;20052;-83
2022/04/29 00:27:32;;;;;;;6.55;2.40;;;;;;;14.12;62.62;102796.88;5072558;28;20091;-83
2022/04/29 00:29:59;;;;;;;5.70;2.10;;;;;;;13.74;63.68;102767.75;5072698;28;20048;-83
2022/04/29 00:32:26;;;;;;;9.18;2.20;;;;;;;13.79;65.70;102804.50;5071904;28;20048;-81
2022/04/29 00:34:54;;;;;;;7.05;1.83;;;;;;;13.55;67.81;102777.72;5069783;28;20051;-81
2022/04/29 00:37:20;;;;;;;7.18;2.42;;;;;;;13.71;68.92;102788.84;5071257;28;20047;-81
2022/04/29 00:39:47;;;;;;;6.13;2.17;;;;;;;13.56;72.13;102770.69;5070017;28;20052;-81
2022/04/29 00:42:23;;;;;;;9.30;2.78;;;;;;;13.15;87.33;102798.53;5070702;28;20048;-81
2022/04/29 00:44:50;;;;;;;8.50;3.13;;;;;;;13.24;100.00;102790.47;5061473;28;20048;-82
2022/04/29 00:47:19;;;;;;;8.90;2.08;;;;;;;13.22;100.00;102781.75;5055567;28;20045;-82
2022/04/29 00:49:48;;;;;;;10.25;2.25;;;;;;;13.38;100.00;102792.94;5064108;28;20054;-83
2022/04/29 00:52:18;;;;;;;7.38;2.28;;;;;;;13.56;100.00;102789.97;5062812;28;20422;-84
2022/04/29 00:55:01;;;;;;;7.38;2.10;;;;;;;13.57;100.00;102783.81;5072163;28;20127;-84
2022/04/29 00:57:40;;;;;;;7.95;2.47;;;;;;;13.42;100.00;102773.56;5057362;28;20048;-84
2022/04/29 01:00:10;;;;;;;5.88;2.10;;;;;;;13.07;100.00;102746.06;5088585;28;20121;-84
2022/04/29 01:02:45;;;;;;;7.82;2.03;;;;;;;13.21;100.00;102772.13;5062494;28;20055;-84
2022/04/29 01:05:16;;;;;;;6.18;1.98;;;;;;;12.84;100.00;102725.38;5066939;28;20045;-85
2022/04/29 01:07:44;;;;;;;25.30;2.47;;;;;;;13.25;100.00;102785.19;5097030;28;20067;-84
2022/04/29 01:10:12;;;;;;;9.55;2.42;;;;;;;13.26;100.00;102781.69;5061070;28;20049;-85
2022/04/29 01:12:42;;;;;;;8.80;2.25;;;;;;;13.09;100.00;102742.50;5058453;28;20144;-85
2022/04/29 01:15:14;;;;;;;6.03;2.03;;;;;;;13.36;100.00;102779.78;5057938;28;20057;-85
2022/04/29 01:17:43;;;;;;;7.38;2.25;;;;;;;12.88;100.00;102725.31;5054431;28;20071;-85
2022/04/29 01:20:13;;;;;;;7.30;2.13;;;;;;;13.03;100.00;102744.34;5061116;28;20074;-85
2022/04/29 01:22:41;;;;;;;9.73;2.10;;;;;;;13.36;100.00;102781.56;5066946;28;20052;-85
2022/04/29 01:25:08;;;;;;;6.03;1.83;;;;;;;13.22;100.00;102734.41;5069707;28;20052;-84
2022/04/29 01:27:35;;;;;;;8.35;2.67;;;;;;;13.42;100.00;102766.56;5064812;28;20060;-84
2022/04/29 01:30:07;;;;;;;6.60;2.10;;;;;;;13.13;100.00;102731.94;5075693;28;20044;-84
2022/04/29 01:32:35;;;;;;;8.02;2.45;;;;;;;13.30;100.00;102772.00;5074875;28;20052;-84
2022/04/29 01:35:04;;;;;;;5.80;2.20;;;;;;;13.06;100.00;102752.19;5074962;28;20127;-85
2022/04/29 01:37:31;;;;;;;6.72;2.22;;;;;;;13.21;100.00;102737.91;5070563;28;20056;-85
2022/04/29 01:39:57;;;;;;;5.80;1.75;;;;;;;12.90;100.00;102723.50;5058890;28;20044;-85
2022/04/29 01:42:24;;;;;;;7.13;2.10;;;;;;;13.18;100.00;102775.69;5074535;28;20062;-85
2022/04/29 01:44:53;;;;;;;8.07;2.60;;;;;;;13.21;100.00;102761.59;5076014;28;20114;-85
2022/04/29 01:47:20;;;;;;;7.20;2.63;;;;;;;13.21;100.00;102769.47;5074621;28;20051;-85
2022/04/29 01:49:47;;;;;;;7.00;2.28;;;;;;;13.10;100.00;102756.50;5074823;28;20432;-85
2022/04/29 01:52:14;;;;;;;9.15;2.20;;;;;;;12.82;100.00;102709.63;5075558;28;20045;-85
2022/04/29 01:54:41;;;;;;;6.00;2.08;;;;;;;13.06;100.00;102749.56;5074579;28;20550;-84
2022/04/29 01:57:08;;;;;;;8.32;2.60;;;;;;;13.19;100.00;102764.28;5074394;28;20045;-85
2022/04/29 01:59:35;;;;;;;7.03;2.15;;;;;;;13.19;100.00;102764.28;5060087;28;20466;-85
2022/04/29 02:02:05;;;;;;;8.23;2.10;;;;;;;13.15;100.00;102743.28;5055452;28;20106;-84
2022/04/29 02:04:34;;;;;;;5.47;2.13;;;;;;;13.37;100.00;102762.25;5070001;28;20053;-84
2022/04/29 02:07:05;;;;;;;5.65;2.08;;;;;;;13.09;100.00;102725.84;5075607;28;20052;-84
2022/04/29 02:09:32;;;;;;;7.68;2.30;;;;;;;12.90;100.00;102715.63;5075679;28;20486;-84
2022/04/29 02:12:05;;;;;;;7.22;2.65;;;;;;;12.97;100.00;102707.66;5075283;28;20061;-84
2022/04/29 02:14:40;;;;;;;6.32;2.20;;;;;;;12.88;100.00;102735.81;5074145;28;20076;-84
2022/04/29 02:17:09;;;;;;;8.55;2.63;;;;;;;13.20;100.00;102751.97;5073877;28;20135;-84
2022/04/29 02:19:36;;;;;;;10.98;2.70;;;;;;;13.20;100.00;102766.00;5074547;28;20059;-84
2022/04/29 02:22:06;;;;;;;6.95;2.53;;;;;;;13.05;100.00;102751.34;5074899;28;20048;-84
2022/04/29 02:24:33;;;;;;;6.80;2.50;;;;;;;12.94;100.00;102711.19;5075052;28;20058;-84
2022/04/29 02:27:02;;;;;;;8.07;2.72;;;;;;;13.24;100.00;102761.56;5075289;28;20052;-84
2022/04/29 02:29:29;;;;;;;6.78;2.40;;;;;;;13.10;100.00;102735.47;5075488;28;20478;-83
2022/04/29 02:31:57;;;;;;;8.55;2.83;;;;;;;12.99;100.00;102743.53;5074722;28;20156;-84
2022/04/29 02:34:23;;;;;;;7.30;2.40;;;;;;;12.85;100.00;102732.38;5073614;28;20480;-84
2022/04/29 02:36:50;;;;;;;5.20;2.00;;;;;;;13.24;100.00;102761.56;5075075;28;20054;-84
2022/04/29 02:39:17;;;;;;;6.90;2.13;;;;;;;12.86;100.00;102742.84;5074465;28;20054;-84
2022/04/29 02:41:45;;;;;;;8.40;2.80;;;;;;;13.04;100.00;102743.47;5074783;28;20394;-84
2022/04/29 02:44:13;;;;;;;8.45;2.83;;;;;;;12.76;100.00;102720.22;5074649;28;20045;-84
2022/04/29 02:49:43;;;;;;;7.80;2.83;;;;;;;12.95;100.00;102760.25;5051171;28;20052;-84
2022/04/29 02:52:12;;;;;;;7.72;2.55;;;;;;;12.68;100.00;102696.69;5074763;28;20549;-84
2022/04/29 02:54:40;;;;;;;6.40;2.38;;;;;;;12.74;100.00;102703.63;5073623;28;20131;-84
2022/04/29 02:57:08;;;;;;;13.05;2.88;;;;;;;12.98;100.00;102712.00;5074177;28;20044;-84
2022/04/29 02:59:35;;;;;;;8.18;2.22;;;;;;;12.97;100.00;102712.91;5073124;28;20044;-84
2022/04/29 03:02:03;;;;;;;7.03;2.42;;;;;;;12.70;100.00;102697.53;5073486;28;20466;-85
2022/04/29 03:04:30;;;;;;;9.38;2.88;;;;;;;12.72;100.00;102719.41;5073352;28;20504;-85
2022/04/29 03:06:57;;;;;;;6.95;2.97;;;;;;;12.73;100.00;102746.59;5074203;28;20059;-85
2022/04/29 03:09:25;;;;;;;7.38;2.30;;;;;;;12.51;100.00;102696.94;5073272;28;20055;-85
2022/04/29 03:11:52;;;;;;;7.75;2.63;;;;;;;12.84;100.00;102757.78;5074160;28;20452;-85
2022/04/29 03:14:18;;;;;;;8.57;2.67;;;;;;;12.60;100.00;102726.59;5074241;28;20500;-84
2022/04/29 03:16:50;;;;;;;8.98;2.67;;;;;;;12.52;100.00;102710.97;5074568;28;20052;-85
2022/04/29 03:19:17;;;;;;;9.02;2.55;;;;;;;12.48;100.00;102738.16;5073749;28;20055;-83
2022/04/29 03:21:44;;;;;;;10.75;3.40;;;;;;;12.24;100.00;102711.34;5070918;28;20453;-81
2022/04/29 03:24:11;;;;;;;10.43;2.80;;;;;;;12.55;100.00;102721.41;5072787;28;20466;-84
2022/04/29 03:26:38;;;;;;;7.25;2.33;;;;;;;12.72;100.00;102747.47;5073035;28;20088;-84
2022/04/29 03:29:04;;;;;;;8.23;2.55;;;;;;;12.56;100.00;102714.41;5071587;28;20044;-84
2022/04/29 03:31:31;;;;;;;7.45;2.47;;;;;;;12.85;100.00;102732.38;5070956;28;20060;-84
2022/04/29 03:33:58;;;;;;;6.85;2.33;;;;;;;12.69;100.00;102723.84;5071818;28;20056;-82
2022/04/29 03:36:25;;;;;;;14.68;2.88;;;;;;;12.61;100.00;102742.34;5072499;28;20108;-84
2022/04/29 03:38:52;;;;;;;7.25;2.70;;;;;;;12.61;100.00;102734.47;5072156;28;20127;-84
2022/04/29 03:41:19;;;;;;;6.65;2.40;;;;;;;12.57;100.00;102738.03;5071616;28;20057;-84
2022/04/29 03:43:46;;;;;;;8.38;2.83;;;;;;;12.34;100.00;102714.69;5071676;28;20057;-85
2022/04/29 03:46:13;;;;;;;6.93;2.40;;;;;;;12.34;100.00;102712.06;5071080;28;20051;-85
2022/04/29 03:51:25;;;;;;;8.98;2.45;;;;;;;12.39;100.00;102723.38;5073135;28;20406;-84
2022/04/29 03:53:52;;;;;;;7.93;2.30;;;;;;;12.31;100.00;102717.38;5073581;28;20048;-85
2022/04/29 03:56:19;;;;;;;6.57;2.45;;;;;;;12.24;100.00;102711.34;5071289;28;20044;-82
2022/04/29 03:58:45;;;;;;;7.03;2.28;;;;;;;12.52;100.00;102748.59;5072558;28;20044;-85
2022/04/29 04:01:12;;;;;;;8.00;2.58;;;;;;;12.64;100.00;102738.81;5072253;28;20044;-82
2022/04/29 04:03:40;;;;;;;11.48;2.80;;;;;;;12.50;100.00;102737.25;5071804;28;20044;-81
2022/04/29 04:09:09;;;;;;;7.40;2.47;;;;;;;12.38;100.00;102734.78;5030923;28;20468;-84
2022/04/29 04:11:37;;;;;;;8.10;2.75;;;;;;;12.37;100.00;102737.44;5048670;28;20148;-84
2022/04/29 04:14:03;;;;;;;7.45;2.67;;;;;;;12.40;100.00;102747.91;5051919;28;20084;-84
2022/04/29 04:16:30;;;;;;;6.47;2.20;;;;;;;12.47;100.00;102752.19;5053280;28;20049;-84
2022/04/29 04:18:57;;;;;;;9.25;3.47;;;;;;;12.24;100.00;102720.97;5053694;28;20489;-84
2022/04/29 04:21:24;;;;;;;8.23;2.30;;;;;;;12.39;100.00;102725.16;5067938;28;20052;-84
2022/04/29 04:23:53;;;;;;;11.38;2.90;;;;;;;12.09;100.00;102706.25;5072759;28;20051;-84
2022/04/29 04:26:20;;;;;;;7.20;2.10;;;;;;;12.04;100.00;102701.09;5071591;28;20056;-84
2022/04/29 04:28:47;;;;;;;6.60;2.40;;;;;;;12.24;100.00;102748.09;5072157;28;20049;-84
2022/04/29 04:31:13;;;;;;;7.30;2.47;;;;;;;12.06;100.00;102722.94;5072968;28;20048;-83
2022/04/29 04:33:40;;;;;;;6.35;2.20;;;;;;;12.08;100.00;102691.41;5073022;28;20441;-84
2022/04/29 04:36:09;;;;;;;6.50;2.00;;;;;;;12.07;100.00;102702.78;5072727;28;20055;-84
2022/04/29 04:38:38;;;;;;;6.45;2.03;;;;;;;12.16;100.00;102734.19;5071724;28;20087;-84
2022/04/29 04:41:07;;;;;;;9.30;2.63;;;;;;;11.90;100.00;102701.25;5071576;28;20078;-84
2022/04/29 04:43:35;;;;;;;6.93;2.42;;;;;;;12.23;100.00;102756.00;5073285;28;20099;-84
2022/04/29 04:46:03;;;;;;;7.35;2.33;;;;;;;12.13;100.00;102735.09;5071829;28;20048;-84
2022/04/29 04:48:31;;;;;;;7.13;2.45;;;;;;;12.10;100.00;102729.03;5073024;28;20083;-84
2022/04/29 04:51:01;;;;;;;6.38;1.90;;;;;;;12.13;100.00;102732.47;5073072;28;20122;-84
2022/04/29 04:53:28;;;;;;;6.25;2.33;;;;;;;11.91;100.00;102734.47;5072719;28;20052;-84
2022/04/29 04:55:55;;;;;;;6.10;2.15;;;;;;;11.95;100.00;102743.19;5073869;28;20048;-84
2022/04/29 04:58:22;;;;;;;8.07;2.22;;;;;;;12.08;100.00;102747.41;5073271;28;20048;-84
2022/04/29 05:00:50;;;;;;;10.75;2.00;;;;;;;12.02;100.00;102741.34;5074237;28;20506;-84
2022/04/29 05:03:17;;;;;;;7.35;2.47;;;;;;;11.81;100.00;102724.06;5056438;28;20053;-84
2022/04/29 05:05:43;;;;;;;8.05;2.55;;;;;;;12.05;100.00;102713.31;5055625;28;20063;-83
2022/04/29 05:08:10;;;;;;;6.70;2.30;;;;;;;12.13;100.00;102735.09;5064801;28;20136;-84
2022/04/29 05:10:37;;;;;;;6.13;2.22;;;;;;;12.17;100.00;102750.84;5065174;28;20051;-84
2022/04/29 05:13:03;;;;;;;8.50;2.33;;;;;;;12.17;100.00;102732.44;5075393;28;20052;-84
2022/04/29 05:15:30;;;;;;;6.90;2.58;;;;;;;12.37;100.00;102768.97;5072978;28;20049;-84
2022/04/29 05:17:57;;;;;;;7.38;2.42;;;;;;;12.14;100.00;102739.44;5073436;28;20072;-84
2022/04/29 05:20:24;;;;;;;6.90;2.53;;;;;;;12.10;100.00;102724.63;5075705;28;20040;-84
2022/04/29 05:22:50;;;;;;;6.63;2.03;;;;;;;12.44;100.00;102766.22;5075964;28;20059;-84
2022/04/29 05:25:17;;;;;;;7.63;2.40;;;;;;;12.18;100.00;102726.28;5069076;28;20068;-84
2022/04/29 05:27:44;;;;;;;6.40;2.20;;;;;;;12.35;100.00;102726.94;5067160;28;20044;-84
2022/04/29 05:30:12;;;;;;;4.97;1.80;;;;;;;12.41;100.00;102740.00;5065130;28;20044;-84
2022/04/29 05:32:39;;;;;;;8.45;2.63;;;;;;;12.45;100.00;102749.59;5074477;28;20132;-85
2022/04/29 05:35:08;;;;;;;7.55;2.35;;;;;;;12.73;100.00;102780.75;5074424;28;20044;-85
2022/04/29 05:37:37;;;;;;;8.10;2.25;;;;;;;12.49;100.00;102753.91;5072776;28;20079;-84
2022/04/29 05:42:50;;;;;;;5.65;1.90;;;;;;;12.36;100.00;102754.97;5063385;28;20044;-83
2022/04/29 05:45:16;;;;;;;7.30;2.17;;;;;;;12.55;100.00;102758.19;5103113;28;20058;-84
2022/04/29 05:47:46;;;;;;;9.23;2.33;;;;;;;12.28;100.00;102717.41;5070118;28;20087;-83
2022/04/29 05:50:13;;;;;;;7.50;2.22;;;;;;;12.71;100.00;102772.00;5070607;28;20486;-83
2022/04/29 05:52:40;;;;;;;8.32;2.20;;;;;;;12.64;100.00;102762.47;5072061;28;20045;-83
2022/04/29 05:55:07;;;;;;;8.20;2.83;;;;;;;12.59;100.00;102724.84;5066876;28;20044;-84
2022/04/29 05:57:34;;;;;;;7.63;2.63;;;;;;;12.66;100.00;102750.16;5067211;28;20139;-85
2022/04/29 06:00:01;;;;;;;7.70;2.83;;;;;;;12.67;100.00;102741.41;5075494;28;20056;-84
2022/04/29 06:02:29;;;;;;;10.32;2.72;;;;;;;12.56;100.00;102709.16;5062407;28;20047;-83
2022/04/29 06:04:56;;;;;;;7.53;2.28;;;;;;;12.87;100.00;102754.25;5060184;28;20056;-83
2022/04/29 06:07:22;;;;;;;8.57;2.42;;;;;;;12.88;100.00;102766.50;5085895;28;20045;-84
2022/04/29 06:09:49;;;;;;;6.70;2.10;;;;;;;13.09;100.00;102775.84;5056828;28;20064;-84
2022/04/29 06:12:16;;;;;;;7.28;2.13;;;;;;;13.07;100.00;102760.06;5061010;28;20582;-84
2022/04/29 06:14:45;;;;;;;8.77;2.40;;;;;;;13.21;100.00;102783.53;5067618;28;20048;-84
2022/04/29 06:17:13;;;;;;;6.05;1.85;;;;;;;13.33;100.00;102776.34;5063777;28;20475;-83
2022/04/29 06:19:41;;;;;;;6.82;2.13;;;;;;;13.43;100.00;102773.53;5073905;28;20055;-82
2022/04/29 06:22:08;;;;;;;7.88;2.33;;;;;;;13.52;100.00;102758.50;5074848;28;20052;-84
2022/04/29 06:24:35;;;;;;;5.25;1.88;;;;;;;13.55;99.36;102742.66;5063585;28;20045;-84
2022/04/29 06:27:22;;;;;;;7.30;2.53;;;;;;;13.67;99.32;102777.50;5059865;28;20068;-84
2022/04/29 06:29:49;;;;;;;7.78;2.00;;;;;;;13.59;98.47;102757.50;5071668;28;20041;-83
2022/04/29 06:32:16;;;;;;;7.30;2.05;;;;;;;13.79;99.99;102784.31;5068837;28;20131;-84
2022/04/29 06:34:43;;;;;;;5.45;1.90;;;;;;;13.52;97.41;102733.03;5061030;28;20056;-82
2022/04/29 06:37:10;;;;;;;8.63;2.55;;;;;;;13.75;96.13;102766.81;5052010;28;20505;-82
2022/04/29 06:39:40;;;;;;;6.68;2.13;;;;;;;13.76;98.69;102773.00;5091637;28;20127;-82
2022/04/29 06:42:08;;;;;;;8.52;1.92;;;;;;;14.09;96.43;102773.22;5062629;28;20146;-83
2022/04/29 06:44:37;;;;;;;6.82;2.00;;;;;;;14.20;95.69;102773.84;5068839;28;20686;-82
2022/04/29 06:47:04;;;;;;;6.50;1.83;;;;;;;14.30;93.21;102785.09;5057802;28;20055;-82
2022/04/29 06:49:31;;;;;;;6.72;1.85;;;;;;;14.66;90.96;102793.13;5053732;28;20460;-83
2022/04/29 06:51:58;;;;;;;7.75;2.15;;;;;;;14.11;88.69;102737.16;5071950;28;20489;-82
2022/04/29 06:54:25;;;;;;;9.25;2.40;;;;;;;14.32;89.25;102760.44;5071687;28;20466;-82
2022/04/29 06:56:52;;;;;;;8.00;2.75;;;;;;;14.48;87.73;102771.50;5073480;28;20405;-82
2022/04/29 06:59:19;;;;;;;8.43;1.95;;;;;;;14.61;87.27;102802.03;5073487;28;20194;-82
2022/04/29 07:01:46;;;;;;;5.38;1.95;;;;;;;14.54;85.69;102775.81;5071517;28;20067;-82
2022/04/29 07:04:13;;;;;;;5.90;2.05;;;;;;;14.84;86.73;102783.94;5073059;28;20048;-82
2022/04/29 07:06:39;;;;;;;7.38;2.42;;;;;;;14.86;86.28;102804.13;5072958;28;20482;-83
2022/04/29 07:09:06;;;;;;;8.20;2.28;;;;;;;15.02;84.53;102803.78;5072249;28;20080;-83
2022/04/29 07:11:33;;;;;;;9.88;3.17;;;;;;;15.21;82.62;102814.75;5072087;28;20071;-83
2022/04/29 07:14:01;;;;;;;7.13;2.58;;;;;;;15.55;83.31;102801.59;5072726;28;20052;-83
2022/04/29 07:16:30;;;;;;;6.25;2.15;;;;;;;15.44;79.70;102779.88;5071570;28;20513;-83
2022/04/29 07:19:03;;;;;;;4.35;1.58;;;;;;;15.97;80.51;102809.31;5072730;28;20090;-83
2022/04/29 07:21:30;;;;;;;7.03;2.28;;;;;;;16.09;78.42;102819.53;5072090;28;20048;-83
2022/04/29 07:23:59;;;;;;;12.02;2.53;;;;;;;16.18;75.38;102817.56;5070940;28;20053;-82
2022/04/29 07:26:26;;;;;;;9.50;2.17;;;;;;;16.16;74.60;102830.81;5071524;28;20054;-83
2022/04/29 07:28:52;;;;;;;8.32;2.20;;;;;;;16.28;74.77;102821.66;5071748;28;20040;-83
2022/04/29 07:31:19;;;;;;;7.57;2.65;;;;;;;16.20;74.70;102821.91;5072266;28;20057;-83
2022/04/29 07:33:46;;;;;;;8.13;2.45;;;;;;;16.50;75.67;102829.84;5071969;28;20391;-86
2022/04/29 07:41:46;;;;;;;10.82;3.03;;;;;;;15.30;74.58;102794.28;5072508;28;20046;-85
2022/04/29 07:44:14;;;;;;;9.38;2.45;;;;;;;15.94;75.65;102831.41;5071996;28;20405;-85
2022/04/29 07:46:45;;;;;;;8.50;3.00;;;;;;;15.71;74.80;102817.91;5067562;28;20059;-85
2022/04/29 07:49:13;;;;;;;13.35;2.92;;;;;;;16.09;75.98;102838.03;5058152;28;20134;-85
2022/04/29 07:51:41;;;;;;;11.00;2.97;;;;;;;16.30;74.27;102836.56;5068381;28;20063;-85
2022/04/29 07:54:08;;;;;;;8.93;2.95;;;;;;;16.32;72.97;102812.72;5052652;28;20059;-85
2022/04/29 07:56:35;;;;;;;9.52;3.22;;;;;;;16.25;74.01;102827.03;5062284;28;20051;-85
2022/04/29 07:59:02;;;;;;;10.48;3.70;;;;;;;15.26;76.12;102812.88;5061973;28;20040;-86
2022/04/29 08:01:30;;;;;;;8.18;3.20;;;;;;;15.95;76.85;102819.03;5071785;28;20060;-85
2022/04/29 08:03:58;;;;;;;7.25;2.55;;;;;;;16.21;75.41;102830.69;5071108;28;20049;-85
2022/04/29 08:06:31;;;;;;;8.48;3.00;;;;;;;15.93;74.66;102799.72;5072086;28;20490;-85
2022/04/29 08:09:17;;;;;;;7.03;2.28;;;;;;;16.50;75.74;102829.84;5072045;28;20071;-84
2022/04/29 08:11:45;;;;;;;9.80;3.72;;;;;;;16.48;75.47;102832.56;5069338;28;20485;-84
2022/04/29 08:14:12;;;;;;;10.23;2.72;;;;;;;16.52;74.99;102820.09;5071970;28;20139;-85
2022/04/29 08:16:59;;;;;;;8.00;2.65;;;;;;;16.33;74.85;102804.75;5068656;28;20063;-85
2022/04/29 08:19:27;;;;;;;9.88;3.85;;;;;;;16.28;74.73;102841.03;5073141;28;20044;-84
2022/04/29 08:21:53;;;;;;;10.38;3.45;;;;;;;16.24;74.04;102828.81;5066120;28;20052;-84
2022/04/29 08:24:20;;;;;;;9.40;2.90;;;;;;;16.45;75.60;102834.38;5090204;28;20426;-84
2022/04/29 08:26:47;;;;;;;10.68;2.75;;;;;;;16.89;74.43;102825.19;5055571;28;20059;-84
2022/04/29 08:29:14;;;;;;;9.93;2.83;;;;;;;17.05;75.10;102829.97;5059224;28;20501;-84
2022/04/29 08:31:40;;;;;;;11.63;2.80;;;;;;;17.84;73.14;102818.50;5056521;28;20483;-84
2022/04/29 08:34:09;;;;;;;11.85;3.60;;;;;;;17.76;69.39;102825.88;5069677;28;20142;-85
2022/04/29 08:36:35;;;;;;;13.70;4.93;;;;;;;17.44;69.73;102792.50;5062534;28;20384;-85
2022/04/29 08:39:02;;;;;;;13.20;4.13;;;;;;;16.94;71.17;102850.63;5070799;28;20045;-85
2022/04/29 08:41:32;;;;;;;11.40;3.42;;;;;;;16.87;70.43;102782.03;5071987;28;20529;-85
2022/04/29 08:44:00;;;;;;;10.20;3.40;;;;;;;17.67;69.94;102806.75;5072428;28;20048;-85
2022/04/29 08:46:27;;;;;;;13.50;3.88;;;;;;;17.73;68.42;102819.81;5071701;28;20044;-85
2022/04/29 08:48:55;;;;;;;10.48;3.47;;;;;;;17.98;68.54;102809.22;5071152;28;20463;-85
2022/04/29 08:51:22;;;;;;;14.05;4.38;;;;;;;18.33;65.53;102799.13;5071612;28;20053;-85
2022/04/29 08:53:49;;;;;;;8.90;3.28;;;;;;;18.31;66.23;102832.78;5072420;28;20071;-85
2022/04/29 08:59:03;;;;;;;13.27;4.40;;;;;;;17.52;68.48;102846.09;5072187;28;20392;-85
2022/04/29 09:01:30;;;;;;;9.98;3.58;;;;;;;17.41;69.06;102845.59;5070931;28;20079;-85
2022/04/29 09:03:57;;;;;;;9.88;3.22;;;;;;;16.59;70.37;102797.84;5071068;28;20048;-85
2022/04/29 09:06:24;;;;;;;9.35;3.13;;;;;;;16.69;70.89;102809.00;5072684;28;20402;-85
2022/04/29 09:08:51;;;;;;;13.30;3.40;;;;;;;16.90;72.92;102812.81;5072547;28;20471;-84
2022/04/29 09:11:27;;;;;;;9.63;3.42;;;;;;;16.94;70.22;102861.19;5070897;28;20059;-84
2022/04/29 09:13:54;;;;;;;13.38;3.88;;;;;;;17.07;70.26;102865.22;5072259;28;20413;-83
2022/04/29 09:16:21;;;;;;;11.30;3.92;;;;;;;16.77;70.25;102841.41;5070647;28;20131;-82
2022/04/29 09:18:53;;;;;;;11.65;3.72;;;;;;;17.10;70.20;102820.09;5071473;28;20048;-82
2022/04/29 09:21:26;;;;;;;13.57;3.55;;;;;;;17.56;67.92;102850.38;5069796;28;20044;-83
2022/04/29 09:23:59;;;;;;;10.40;3.50;;;;;;;17.44;67.63;102840.19;5066507;28;20048;-84
2022/04/29 09:26:27;;;;;;;;;;;;;;;17.83;66.36;102850.38;5071475;28;20139;-85
2022/04/29 09:29:19;;;;;;;14.18;4.65;;;;;;;16.40;71.11;102854.84;5070375;28;19974;-84
2022/04/29 09:32:00;;;;;;;10.30;3.33;;;;;;;17.38;68.45;102828.00;5071975;28;20044;-84
2022/04/29 09:34:58;;;;;;;10.75;2.65;;;;;;;17.82;67.63;102823.00;5071969;28;20045;-84
2022/04/29 09:37:31;;;;;;;8.93;3.55;;;;;;;17.52;68.26;102824.91;5050423;28;20053;-84
2022/04/29 09:40:05;;;;;;;9.75;3.85;;;;;;;17.60;67.16;102853.78;5052884;28;20079;-84
2022/04/29 09:42:40;;;;;;;10.63;3.25;;;;;;;17.52;67.39;102835.50;5069877;28;20053;-85
2022/04/29 09:45:18;;;;;;;14.88;3.75;;;;;;;17.05;67.41;102824.69;5072573;28;20044;-85
2022/04/29 09:47:45;;;;;;;11.88;3.85;;;;;;;17.26;67.49;102849.59;5069246;28;20132;-84
2022/04/29 09:50:13;;;;;;;16.13;4.22;;;;;;;17.48;67.06;102844.47;5057170;28;20466;-85
2022/04/29 09:52:43;;;;;;;11.05;4.10;;;;;;;17.39;68.29;102850.94;5072633;28;20090;-85
2022/04/29 09:55:11;;;;;;;14.00;4.30;;;;;;;16.83;67.59;102848.28;5073720;28;20056;-84
2022/04/29 09:57:51;;;;;;;13.05;3.88;;;;;;;17.06;68.61;102850.25;5072475;28;20048;-84
2022/04/29 10:00:19;;;;;;;11.68;4.07;;;;;;;17.80;67.19;102834.56;5072977;28;20045;-84
2022/04/29 10:02:49;;;;;;;12.68;3.95;;;;;;;17.71;65.96;102827.81;5073072;28;20538;-84
2022/04/29 10:05:16;;;;;;;10.02;3.92;;;;;;;18.12;63.93;102828.16;5074515;28;20056;-84
2022/04/29 10:07:46;;;;;;;10.90;4.00;;;;;;;17.89;63.59;102825.47;5074426;28;20048;-84
2022/04/29 10:10:14;;;;;;;13.48;3.88;;;;;;;17.72;64.56;102840.13;5073191;28;20044;-84
2022/04/29 10:12:47;;;;;;;9.27;3.03;;;;;;;18.10;64.28;102840.59;5074568;28;20060;-85
2022/04/29 10:15:17;;;;;;;9.27;3.33;;;;;;;18.24;63.20;102816.25;5073499;28;20379;-85
2022/04/29 10:23:25;;;;;;;11.05;4.00;;;;;;;17.29;64.19;102777.16;5074426;28;20044;-85
2022/04/29 10:25:52;;;;;;;10.70;3.03;;;;;;;18.00;63.80;102800.28;5074146;28;20139;-85
2022/04/29 10:28:22;;;;;;;10.57;4.30;;;;;;;17.54;62.93;102780.69;5073183;28;20056;-85
2022/04/29 10:31:05;;;;;;;8.95;2.95;;;;;;;18.19;63.30;102824.34;5073533;28;20071;-85
2022/04/29 10:33:34;;;;;;;11.68;3.75;;;;;;;17.86;62.00;102801.72;5053016;28;20077;-85
2022/04/29 10:36:07;;;;;;;10.40;3.22;;;;;;;17.31;64.05;102838.88;5066253;28;20048;-85
2022/04/29 10:38:39;;;;;;;8.00;3.38;;;;;;;17.39;64.10;102803.28;5072976;28;20076;-85
2022/04/29 10:41:06;;;;;;;10.32;3.45;;;;;;;17.88;61.53;102818.44;5073754;28;20053;-85
2022/04/29 10:43:59;;;;;;;9.10;3.90;;;;;;;17.57;61.50;102838.00;5072595;28;20051;-85
2022/04/29 10:46:36;;;;;;;9.57;4.23;;;;;;;17.13;62.94;102816.50;5067920;28;20067;-85
2022/04/29 10:49:27;;;;;;;8.98;3.10;;;;;;;17.32;64.17;102830.03;5071649;28;20097;-86
2022/04/29 10:52:02;;;;;;;7.40;2.42;;;;;;;18.13;62.54;102802.50;5071914;28;20048;-82
2022/04/29 10:54:40;;;;;;;6.35;2.38;;;;;;;17.98;61.47;102826.00;5071503;28;20133;-82
2022/04/29 10:57:12;;;;;;;9.48;4.00;;;;;;;16.88;64.75;102818.13;5071364;28;20052;-83
2022/04/29 10:59:57;;;;;;;13.98;4.65;;;;;;;17.52;65.36;102821.41;5072558;28;20044;-82
2022/04/29 11:02:27;;;;;;;8.35;3.25;;;;;;;18.08;62.16;102820.34;5072081;28;20052;-82
2022/04/29 11:04:56;;;;;;;9.48;3.28;;;;;;;17.53;62.48;102810.75;5071115;28;20094;-81
2022/04/29 11:07:41;;;;;;;9.18;3.30;;;;;;;17.71;63.00;102814.56;5072694;28;20056;-83
2022/04/29 11:10:14;;;;;;;11.20;4.68;;;;;;;17.66;62.03;102821.78;5071653;28;20093;-82
2022/04/29 11:12:52;;;;;;;16.75;5.20;;;;;;;17.12;66.06;102802.38;5071286;28;20486;-82
2022/04/29 11:15:21;;;;;;;10.50;4.20;;;;;;;16.67;68.70;102798.47;5072600;28;20055;-81
2022/04/29 11:17:49;;;;;;;10.77;3.63;;;;;;;16.99;68.86;102799.28;5071258;28;20059;-81
2022/04/29 11:20:18;;;;;;;14.35;3.88;;;;;;;17.05;68.66;102820.28;5071371;28;20124;-82
2022/04/29 11:25:55;;;;;;;12.32;3.78;;;;;;;17.04;70.66;102817.66;5071651;28;20823;-87
2022/04/29 11:28:22;;;;;;;10.43;3.90;;;;;;;16.83;70.99;102795.34;5072290;28;20405;-87
2022/04/29 11:30:57;;;;;;;11.07;4.07;;;;;;;17.24;70.96;102812.56;5070133;28;20047;-86
2022/04/29 11:33:24;;;;;;;9.77;4.03;;;;;;;16.64;72.65;102800.34;5066468;28;20051;-86
2022/04/29 11:36:04;;;;;;;10.55;4.38;;;;;;;16.77;73.26;102807.00;5067085;28;20441;-86
2022/04/29 11:38:40;;;;;;;12.80;4.20;;;;;;;16.23;74.74;102774.22;5071072;28;20545;-86
2022/04/29 11:41:07;;;;;;;9.45;4.25;;;;;;;16.16;76.14;102814.09;5069958;28;20123;-87
2022/04/29 11:43:34;;;;;;;9.93;4.03;;;;;;;16.29;78.91;102805.78;5072419;28;20083;-83
2022/04/29 11:46:05;;;;;;;10.82;3.72;;;;;;;16.82;77.42;102828.00;5071774;28;20135;-83
2022/04/29 11:48:34;;;;;;;14.70;4.93;;;;;;;16.48;77.43;102821.97;5071414;28;20090;-84
2022/04/29 11:51:04;;;;;;;16.33;5.75;;;;;;;16.35;79.04;102810.00;5070007;28;20052;-83
2022/04/29 11:53:32;;;;;;;11.70;5.25;;;;;;;15.61;80.57;102790.84;5070247;28;20048;-83
2022/04/29 11:55:59;;;;;;;11.98;3.92;;;;;;;15.85;81.50;102792.03;5070573;28;20052;-83